sensor_id;sensor_type;location;lat;lon;timestamp;P1;durP1;ratioP1;P2;durP2;ratioP2
13807;SDS011;40769;51.512;5.494;2023-07-13T00:00:25;1.85;;;1.35;;
13807;SDS011;40769;51.512;5.494;2023-07-13T00:02:51;2.13;;;1.30;;
13807;SDS011;40769;51.512;5.494;2023-07-13T00:05:20;2.33;;;1.55;;
13807;SDS011;40769;51.512;5.494;2023-07-13T00:07:47;2.30;;;1.38;;
13807;SDS011;40769;51.512;5.494;2023-07-13T00:10:14;2.75;;;1.60;;
13807;SDS011;40769;51.512;5.494;2023-07-13T00:12:40;2.22;;;1.42;;
13807;SDS011;40769;51.512;5.494;2023-07-13T00:15:07;2.58;;;1.55;;
13807;SDS011;40769;51.512;5.494;2023-07-13T00:17:41;2.05;;;1.50;;
13807;SDS011;40769;51.512;5.494;2023-07-13T00:20:09;3.08;;;1.67;;
13807;SDS011;40769;51.512;5.494;2023-07-13T00:22:36;2.55;;;1.35;;
13807;SDS011;40769;51.512;5.494;2023-07-13T00:25:02;2.20;;;1.40;;
13807;SDS011;40769;51.512;5.494;2023-07-13T00:27:31;1.77;;;1.48;;
13807;SDS011;40769;51.512;5.494;2023-07-13T00:29:57;2.63;;;1.48;;
13807;SDS011;40769;51.512;5.494;2023-07-13T00:32:24;2.63;;;1.48;;
13807;SDS011;40769;51.512;5.494;2023-07-13T00:34:50;2.95;;;1.60;;
13807;SDS011;40769;51.512;5.494;2023-07-13T00:37:17;3.28;;;1.73;;
13807;SDS011;40769;51.512;5.494;2023-07-13T00:39:42;3.17;;;1.50;;
13807;SDS011;40769;51.512;5.494;2023-07-13T00:42:08;2.88;;;1.58;;
13807;SDS011;40769;51.512;5.494;2023-07-13T00:44:34;1.75;;;1.52;;
13807;SDS011;40769;51.512;5.494;2023-07-13T00:47:00;1.80;;;1.30;;
13807;SDS011;40769;51.512;5.494;2023-07-13T00:49:27;2.80;;;1.73;;
13807;SDS011;40769;51.512;5.494;2023-07-13T00:51:56;1.63;;;1.38;;
13807;SDS011;40769;51.512;5.494;2023-07-13T00:54:35;2.60;;;1.60;;
13807;SDS011;40769;51.512;5.494;2023-07-13T00:57:05;1.90;;;1.40;;
13807;SDS011;40769;51.512;5.494;2023-07-13T00:59:34;2.15;;;1.60;;
13807;SDS011;40769;51.512;5.494;2023-07-13T01:02:01;1.63;;;1.30;;
13807;SDS011;40769;51.512;5.494;2023-07-13T01:04:29;2.70;;;1.80;;
13807;SDS011;40769;51.512;5.494;2023-07-13T01:06:55;2.22;;;1.73;;
13807;SDS011;40769;51.512;5.494;2023-07-13T01:09:22;3.08;;;1.65;;
13807;SDS011;40769;51.512;5.494;2023-07-13T01:11:48;5.13;;;1.80;;
13807;SDS011;40769;51.512;5.494;2023-07-13T01:14:14;3.40;;;1.85;;
13807;SDS011;40769;51.512;5.494;2023-07-13T01:16:42;3.63;;;1.73;;
13807;SDS011;40769;51.512;5.494;2023-07-13T01:22:13;3.50;;;1.83;;
13807;SDS011;40769;51.512;5.494;2023-07-13T01:24:42;2.40;;;1.48;;
13807;SDS011;40769;51.512;5.494;2023-07-13T01:27:10;2.67;;;1.60;;
13807;SDS011;40769;51.512;5.494;2023-07-13T01:29:38;2.10;;;1.50;;
13807;SDS011;40769;51.512;5.494;2023-07-13T01:32:12;2.10;;;1.30;;
13807;SDS011;40769;51.512;5.494;2023-07-13T01:34:40;2.88;;;1.40;;
13807;SDS011;40769;51.512;5.494;2023-07-13T01:37:07;3.03;;;1.60;;
13807;SDS011;40769;51.512;5.494;2023-07-13T01:39:34;2.38;;;1.58;;
13807;SDS011;40769;51.512;5.494;2023-07-13T01:42:00;2.63;;;1.52;;
13807;SDS011;40769;51.512;5.494;2023-07-13T01:44:26;3.05;;;1.45;;
13807;SDS011;40769;51.512;5.494;2023-07-13T01:46:52;2.85;;;1.50;;
13807;SDS011;40769;51.512;5.494;2023-07-13T01:49:19;3.05;;;1.60;;
13807;SDS011;40769;51.512;5.494;2023-07-13T01:51:44;2.80;;;1.50;;
13807;SDS011;40769;51.512;5.494;2023-07-13T01:54:10;2.38;;;1.50;;
13807;SDS011;40769;51.512;5.494;2023-07-13T01:56:36;3.13;;;1.63;;
13807;SDS011;40769;51.512;5.494;2023-07-13T01:59:01;3.03;;;1.67;;
13807;SDS011;40769;51.512;5.494;2023-07-13T02:01:27;3.20;;;1.60;;
13807;SDS011;40769;51.512;5.494;2023-07-13T02:03:53;1.88;;;1.52;;
13807;SDS011;40769;51.512;5.494;2023-07-13T02:06:19;3.53;;;1.77;;
13807;SDS011;40769;51.512;5.494;2023-07-13T02:08:44;3.20;;;1.50;;
13807;SDS011;40769;51.512;5.494;2023-07-13T02:11:10;4.07;;;1.70;;
13807;SDS011;40769;51.512;5.494;2023-07-13T02:13:36;1.77;;;1.40;;
13807;SDS011;40769;51.512;5.494;2023-07-13T02:16:02;3.70;;;1.60;;
13807;SDS011;40769;51.512;5.494;2023-07-13T02:18:31;1.85;;;1.45;;
13807;SDS011;40769;51.512;5.494;2023-07-13T02:20:57;2.60;;;1.63;;
13807;SDS011;40769;51.512;5.494;2023-07-13T02:23:23;3.63;;;1.85;;
13807;SDS011;40769;51.512;5.494;2023-07-13T02:25:48;3.25;;;1.63;;
13807;SDS011;40769;51.512;5.494;2023-07-13T02:28:14;2.95;;;1.58;;
13807;SDS011;40769;51.512;5.494;2023-07-13T02:30:40;3.03;;;1.67;;
13807;SDS011;40769;51.512;5.494;2023-07-13T02:33:06;3.28;;;1.90;;
13807;SDS011;40769;51.512;5.494;2023-07-13T02:35:31;3.08;;;1.60;;
13807;SDS011;40769;51.512;5.494;2023-07-13T02:37:57;2.65;;;1.88;;
13807;SDS011;40769;51.512;5.494;2023-07-13T02:40:23;2.28;;;1.55;;
13807;SDS011;40769;51.512;5.494;2023-07-13T02:42:48;2.15;;;1.50;;
13807;SDS011;40769;51.512;5.494;2023-07-13T02:45:14;3.95;;;2.13;;
13807;SDS011;40769;51.512;5.494;2023-07-13T02:47:41;3.53;;;2.00;;
13807;SDS011;40769;51.512;5.494;2023-07-13T02:50:07;3.20;;;1.90;;
13807;SDS011;40769;51.512;5.494;2023-07-13T02:52:34;3.22;;;1.80;;
13807;SDS011;40769;51.512;5.494;2023-07-13T02:54:59;3.20;;;1.77;;
13807;SDS011;40769;51.512;5.494;2023-07-13T02:57:25;2.90;;;2.03;;
13807;SDS011;40769;51.512;5.494;2023-07-13T02:59:52;2.65;;;1.92;;
13807;SDS011;40769;51.512;5.494;2023-07-13T03:02:17;4.05;;;1.73;;
13807;SDS011;40769;51.512;5.494;2023-07-13T03:04:43;3.35;;;2.03;;
13807;SDS011;40769;51.512;5.494;2023-07-13T03:07:09;3.40;;;1.90;;
13807;SDS011;40769;51.512;5.494;2023-07-13T03:09:34;4.32;;;2.10;;
13807;SDS011;40769;51.512;5.494;2023-07-13T03:12:01;4.32;;;2.00;;
13807;SDS011;40769;51.512;5.494;2023-07-13T03:14:27;2.60;;;1.85;;
13807;SDS011;40769;51.512;5.494;2023-07-13T03:16:53;3.05;;;2.15;;
13807;SDS011;40769;51.512;5.494;2023-07-13T03:19:19;3.30;;;1.90;;
13807;SDS011;40769;51.512;5.494;2023-07-13T03:21:45;5.15;;;2.45;;
13807;SDS011;40769;51.512;5.494;2023-07-13T03:24:11;3.92;;;1.90;;
13807;SDS011;40769;51.512;5.494;2023-07-13T03:26:37;2.08;;;1.77;;
13807;SDS011;40769;51.512;5.494;2023-07-13T03:29:03;3.67;;;2.10;;
13807;SDS011;40769;51.512;5.494;2023-07-13T03:31:29;3.95;;;2.30;;
13807;SDS011;40769;51.512;5.494;2023-07-13T03:33:58;4.65;;;2.33;;
13807;SDS011;40769;51.512;5.494;2023-07-13T03:36:25;4.35;;;2.10;;
13807;SDS011;40769;51.512;5.494;2023-07-13T03:38:53;3.55;;;2.28;;
13807;SDS011;40769;51.512;5.494;2023-07-13T03:41:22;3.95;;;2.10;;
13807;SDS011;40769;51.512;5.494;2023-07-13T03:43:48;4.85;;;2.10;;
13807;SDS011;40769;51.512;5.494;2023-07-13T03:46:14;4.68;;;2.17;;
13807;SDS011;40769;51.512;5.494;2023-07-13T03:48:41;3.67;;;2.30;;
13807;SDS011;40769;51.512;5.494;2023-07-13T03:51:09;4.65;;;2.25;;
13807;SDS011;40769;51.512;5.494;2023-07-13T03:53:38;5.10;;;2.70;;
13807;SDS011;40769;51.512;5.494;2023-07-13T03:56:05;3.47;;;2.50;;
13807;SDS011;40769;51.512;5.494;2023-07-13T03:58:36;3.60;;;2.33;;
13807;SDS011;40769;51.512;5.494;2023-07-13T04:01:04;3.78;;;2.20;;
13807;SDS011;40769;51.512;5.494;2023-07-13T04:03:31;4.93;;;2.60;;
13807;SDS011;40769;51.512;5.494;2023-07-13T04:06:02;3.45;;;2.53;;
13807;SDS011;40769;51.512;5.494;2023-07-13T04:08:31;4.95;;;2.60;;
13807;SDS011;40769;51.512;5.494;2023-07-13T04:10:59;4.43;;;2.85;;
13807;SDS011;40769;51.512;5.494;2023-07-13T04:13:26;5.47;;;2.92;;
13807;SDS011;40769;51.512;5.494;2023-07-13T04:15:52;4.45;;;2.60;;
13807;SDS011;40769;51.512;5.494;2023-07-13T04:18:18;5.20;;;2.88;;
13807;SDS011;40769;51.512;5.494;2023-07-13T04:20:47;5.25;;;2.53;;
13807;SDS011;40769;51.512;5.494;2023-07-13T04:23:14;5.75;;;3.03;;
13807;SDS011;40769;51.512;5.494;2023-07-13T04:25:47;4.15;;;2.90;;
13807;SDS011;40769;51.512;5.494;2023-07-13T04:28:14;6.57;;;3.47;;
13807;SDS011;40769;51.512;5.494;2023-07-13T04:30:42;7.20;;;3.55;;
13807;SDS011;40769;51.512;5.494;2023-07-13T04:33:08;6.75;;;4.07;;
13807;SDS011;40769;51.512;5.494;2023-07-13T04:35:34;4.22;;;3.38;;
13807;SDS011;40769;51.512;5.494;2023-07-13T04:38:00;9.95;;;4.45;;
13807;SDS011;40769;51.512;5.494;2023-07-13T04:40:26;9.15;;;4.70;;
13807;SDS011;40769;51.512;5.494;2023-07-13T04:42:53;9.82;;;5.32;;
13807;SDS011;40769;51.512;5.494;2023-07-13T04:45:19;7.82;;;5.45;;
13807;SDS011;40769;51.512;5.494;2023-07-13T04:47:45;6.95;;;5.15;;
13807;SDS011;40769;51.512;5.494;2023-07-13T04:50:13;11.43;;;5.85;;
13807;SDS011;40769;51.512;5.494;2023-07-13T04:52:46;8.45;;;6.07;;
13807;SDS011;40769;51.512;5.494;2023-07-13T04:55:11;11.05;;;6.50;;
13807;SDS011;40769;51.512;5.494;2023-07-13T04:57:37;12.13;;;6.75;;
13807;SDS011;40769;51.512;5.494;2023-07-13T05:00:03;9.88;;;6.60;;
13807;SDS011;40769;51.512;5.494;2023-07-13T05:02:30;10.18;;;6.18;;
13807;SDS011;40769;51.512;5.494;2023-07-13T05:04:56;9.63;;;5.95;;
13807;SDS011;40769;51.512;5.494;2023-07-13T05:07:22;11.07;;;7.40;;
13807;SDS011;40769;51.512;5.494;2023-07-13T05:09:48;10.63;;;7.13;;
13807;SDS011;40769;51.512;5.494;2023-07-13T05:12:14;12.10;;;7.20;;
13807;SDS011;40769;51.512;5.494;2023-07-13T05:14:39;10.43;;;6.18;;
13807;SDS011;40769;51.512;5.494;2023-07-13T05:17:05;8.68;;;7.10;;
13807;SDS011;40769;51.512;5.494;2023-07-13T05:19:31;9.77;;;6.60;;
13807;SDS011;40769;51.512;5.494;2023-07-13T05:21:57;9.88;;;6.60;;
13807;SDS011;40769;51.512;5.494;2023-07-13T05:24:23;9.50;;;6.72;;
13807;SDS011;40769;51.512;5.494;2023-07-13T05:26:49;10.35;;;6.88;;
13807;SDS011;40769;51.512;5.494;2023-07-13T05:29:14;8.95;;;7.13;;
13807;SDS011;40769;51.512;5.494;2023-07-13T05:31:40;11.68;;;7.45;;
13807;SDS011;40769;51.512;5.494;2023-07-13T05:34:06;10.02;;;7.13;;
13807;SDS011;40769;51.512;5.494;2023-07-13T05:36:32;9.18;;;7.05;;
13807;SDS011;40769;51.512;5.494;2023-07-13T05:38:57;9.57;;;7.15;;
13807;SDS011;40769;51.512;5.494;2023-07-13T05:41:23;11.15;;;7.05;;
13807;SDS011;40769;51.512;5.494;2023-07-13T05:43:49;10.68;;;6.90;;
13807;SDS011;40769;51.512;5.494;2023-07-13T05:46:14;8.30;;;6.40;;
13807;SDS011;40769;51.512;5.494;2023-07-13T05:48:40;7.57;;;6.72;;
13807;SDS011;40769;51.512;5.494;2023-07-13T05:51:06;8.68;;;6.22;;
13807;SDS011;40769;51.512;5.494;2023-07-13T05:53:33;9.23;;;7.45;;
13807;SDS011;40769;51.512;5.494;2023-07-13T05:56:00;11.75;;;6.93;;
13807;SDS011;40769;51.512;5.494;2023-07-13T05:58:26;7.53;;;6.50;;
13807;SDS011;40769;51.512;5.494;2023-07-13T06:00:58;10.52;;;7.25;;
13807;SDS011;40769;51.512;5.494;2023-07-13T06:03:25;11.77;;;7.65;;
13807;SDS011;40769;51.512;5.494;2023-07-13T06:05:51;8.68;;;7.10;;
13807;SDS011;40769;51.512;5.494;2023-07-13T06:08:17;8.00;;;6.60;;
13807;SDS011;40769;51.512;5.494;2023-07-13T06:10:44;8.27;;;6.88;;
13807;SDS011;40769;51.512;5.494;2023-07-13T06:13:10;7.75;;;6.95;;
13807;SDS011;40769;51.512;5.494;2023-07-13T06:15:36;9.43;;;6.38;;
13807;SDS011;40769;51.512;5.494;2023-07-13T06:18:01;9.10;;;6.93;;
13807;SDS011;40769;51.512;5.494;2023-07-13T06:20:28;7.72;;;6.57;;
13807;SDS011;40769;51.512;5.494;2023-07-13T06:22:54;9.38;;;7.28;;
13807;SDS011;40769;51.512;5.494;2023-07-13T06:25:20;8.75;;;7.60;;
13807;SDS011;40769;51.512;5.494;2023-07-13T06:27:45;11.73;;;7.40;;
13807;SDS011;40769;51.512;5.494;2023-07-13T06:30:11;11.50;;;7.13;;
13807;SDS011;40769;51.512;5.494;2023-07-13T06:32:37;11.23;;;7.38;;
13807;SDS011;40769;51.512;5.494;2023-07-13T06:35:03;9.98;;;7.28;;
13807;SDS011;40769;51.512;5.494;2023-07-13T06:37:32;12.32;;;7.45;;
13807;SDS011;40769;51.512;5.494;2023-07-13T06:39:58;8.30;;;6.00;;
13807;SDS011;40769;51.512;5.494;2023-07-13T06:42:24;7.93;;;5.65;;
13807;SDS011;40769;51.512;5.494;2023-07-13T06:44:49;8.23;;;6.32;;
13807;SDS011;40769;51.512;5.494;2023-07-13T06:47:21;10.23;;;7.38;;
13807;SDS011;40769;51.512;5.494;2023-07-13T06:49:47;11.20;;;6.75;;
13807;SDS011;40769;51.512;5.494;2023-07-13T06:52:13;8.50;;;6.20;;
13807;SDS011;40769;51.512;5.494;2023-07-13T06:54:38;8.20;;;5.93;;
13807;SDS011;40769;51.512;5.494;2023-07-13T06:57:04;7.43;;;6.40;;
13807;SDS011;40769;51.512;5.494;2023-07-13T06:59:30;8.90;;;6.22;;
13807;SDS011;40769;51.512;5.494;2023-07-13T07:01:56;11.68;;;7.70;;
13807;SDS011;40769;51.512;5.494;2023-07-13T07:04:21;8.50;;;6.82;;
13807;SDS011;40769;51.512;5.494;2023-07-13T07:06:47;9.25;;;6.50;;
13807;SDS011;40769;51.512;5.494;2023-07-13T07:09:13;9.10;;;6.47;;
13807;SDS011;40769;51.512;5.494;2023-07-13T07:11:39;7.65;;;6.15;;
13807;SDS011;40769;51.512;5.494;2023-07-13T07:14:05;8.90;;;6.18;;
13807;SDS011;40769;51.512;5.494;2023-07-13T07:16:31;9.38;;;6.35;;
13807;SDS011;40769;51.512;5.494;2023-07-13T07:18:56;10.30;;;6.25;;
13807;SDS011;40769;51.512;5.494;2023-07-13T07:21:22;7.05;;;5.60;;
13807;SDS011;40769;51.512;5.494;2023-07-13T07:23:48;9.35;;;6.22;;
13807;SDS011;40769;51.512;5.494;2023-07-13T07:26:15;8.40;;;6.32;;
13807;SDS011;40769;51.512;5.494;2023-07-13T07:28:41;7.93;;;5.75;;
13807;SDS011;40769;51.512;5.494;2023-07-13T07:31:06;7.75;;;6.13;;
13807;SDS011;40769;51.512;5.494;2023-07-13T07:33:33;8.70;;;5.93;;
13807;SDS011;40769;51.512;5.494;2023-07-13T07:35:59;9.45;;;5.88;;
13807;SDS011;40769;51.512;5.494;2023-07-13T07:38:29;8.25;;;5.00;;
13807;SDS011;40769;51.512;5.494;2023-07-13T07:40:54;8.10;;;5.95;;
13807;SDS011;40769;51.512;5.494;2023-07-13T07:43:20;6.93;;;5.35;;
13807;SDS011;40769;51.512;5.494;2023-07-13T07:45:46;6.07;;;5.47;;
13807;SDS011;40769;51.512;5.494;2023-07-13T07:48:11;7.38;;;5.65;;
13807;SDS011;40769;51.512;5.494;2023-07-13T07:50:37;9.90;;;5.88;;
13807;SDS011;40769;51.512;5.494;2023-07-13T07:53:04;7.10;;;5.40;;
13807;SDS011;40769;51.512;5.494;2023-07-13T07:55:33;6.50;;;5.20;;
13807;SDS011;40769;51.512;5.494;2023-07-13T07:58:00;9.95;;;5.63;;
13807;SDS011;40769;51.512;5.494;2023-07-13T08:00:26;6.63;;;4.47;;
13807;SDS011;40769;51.512;5.494;2023-07-13T08:02:54;6.72;;;4.75;;
13807;SDS011;40769;51.512;5.494;2023-07-13T08:05:20;4.53;;;3.58;;
13807;SDS011;40769;51.512;5.494;2023-07-13T08:07:46;6.78;;;4.97;;
13807;SDS011;40769;51.512;5.494;2023-07-13T08:10:11;7.63;;;4.82;;
13807;SDS011;40769;51.512;5.494;2023-07-13T08:12:37;5.20;;;4.15;;
13807;SDS011;40769;51.512;5.494;2023-07-13T08:15:04;7.15;;;3.60;;
13807;SDS011;40769;51.512;5.494;2023-07-13T08:17:31;5.68;;;4.07;;
13807;SDS011;40769;51.512;5.494;2023-07-13T08:19:57;6.80;;;4.30;;
13807;SDS011;40769;51.512;5.494;2023-07-13T08:22:23;6.07;;;3.80;;
13807;SDS011;40769;51.512;5.494;2023-07-13T08:24:48;6.03;;;3.55;;
13807;SDS011;40769;51.512;5.494;2023-07-13T08:27:21;5.82;;;3.75;;
13807;SDS011;40769;51.512;5.494;2023-07-13T08:29:47;7.25;;;3.75;;
13807;SDS011;40769;51.512;5.494;2023-07-13T08:32:14;6.85;;;3.50;;
13807;SDS011;40769;51.512;5.494;2023-07-13T08:34:39;5.53;;;2.78;;
13807;SDS011;40769;51.512;5.494;2023-07-13T08:37:05;7.25;;;3.28;;
13807;SDS011;40769;51.512;5.494;2023-07-13T08:39:32;4.13;;;3.28;;
13807;SDS011;40769;51.512;5.494;2023-07-13T08:42:00;5.30;;;2.95;;
13807;SDS011;40769;51.512;5.494;2023-07-13T08:44:36;5.40;;;3.00;;
13807;SDS011;40769;51.512;5.494;2023-07-13T08:47:15;6.90;;;3.22;;
13807;SDS011;40769;51.512;5.494;2023-07-13T08:49:42;3.53;;;2.35;;
13807;SDS011;40769;51.512;5.494;2023-07-13T08:52:28;5.65;;;3.38;;
13807;SDS011;40769;51.512;5.494;2023-07-13T08:55:05;5.38;;;3.17;;
13807;SDS011;40769;51.512;5.494;2023-07-13T08:57:40;4.90;;;2.80;;
13807;SDS011;40769;51.512;5.494;2023-07-13T09:00:11;5.07;;;2.70;;
13807;SDS011;40769;51.512;5.494;2023-07-13T09:02:46;3.53;;;2.85;;
13807;SDS011;40769;51.512;5.494;2023-07-13T09:05:29;6.25;;;3.05;;
13807;SDS011;40769;51.512;5.494;2023-07-13T09:11:05;5.28;;;2.85;;
13807;SDS011;40769;51.512;5.494;2023-07-13T09:14:10;3.35;;;2.45;;
13807;SDS011;40769;51.512;5.494;2023-07-13T09:17:03;6.00;;;3.13;;
13807;SDS011;40769;51.512;5.494;2023-07-13T09:19:35;4.60;;;3.00;;
13807;SDS011;40769;51.512;5.494;2023-07-13T09:22:02;5.38;;;3.10;;
13807;SDS011;40769;51.512;5.494;2023-07-13T09:24:41;4.55;;;3.28;;
13807;SDS011;40769;51.512;5.494;2023-07-13T09:27:30;4.57;;;2.45;;
13807;SDS011;40769;51.512;5.494;2023-07-13T09:32:39;3.83;;;2.60;;
13807;SDS011;40769;51.512;5.494;2023-07-13T09:35:12;5.03;;;2.72;;
13807;SDS011;40769;51.512;5.494;2023-07-13T09:37:42;4.35;;;2.55;;
13807;SDS011;40769;51.512;5.494;2023-07-13T09:40:11;6.22;;;2.88;;
13807;SDS011;40769;51.512;5.494;2023-07-13T09:42:53;3.55;;;2.42;;
13807;SDS011;40769;51.512;5.494;2023-07-13T09:45:29;3.60;;;2.50;;
13807;SDS011;40769;51.512;5.494;2023-07-13T09:48:06;3.72;;;2.65;;
13807;SDS011;40769;51.512;5.494;2023-07-13T09:50:42;3.10;;;2.15;;
13807;SDS011;40769;51.512;5.494;2023-07-13T09:53:18;4.15;;;2.38;;
13807;SDS011;40769;51.512;5.494;2023-07-13T09:55:48;2.65;;;2.30;;
13807;SDS011;40769;51.512;5.494;2023-07-13T09:58:26;5.53;;;2.60;;
13807;SDS011;40769;51.512;5.494;2023-07-13T10:00:57;2.60;;;1.90;;
13807;SDS011;40769;51.512;5.494;2023-07-13T10:03:27;5.53;;;2.50;;
13807;SDS011;40769;51.512;5.494;2023-07-13T10:08:37;2.50;;;1.90;;
13807;SDS011;40769;51.512;5.494;2023-07-13T10:13:37;3.03;;;1.83;;
13807;SDS011;40769;51.512;5.494;2023-07-13T10:16:08;4.15;;;2.35;;
13807;SDS011;40769;51.512;5.494;2023-07-13T10:18:51;3.75;;;1.88;;
13807;SDS011;40769;51.512;5.494;2023-07-13T10:21:21;2.65;;;1.77;;
13807;SDS011;40769;51.512;5.494;2023-07-13T10:24:00;3.85;;;2.08;;
13807;SDS011;40769;51.512;5.494;2023-07-13T10:26:37;3.83;;;1.98;;
13807;SDS011;40769;51.512;5.494;2023-07-13T10:29:09;2.22;;;1.80;;
13807;SDS011;40769;51.512;5.494;2023-07-13T10:31:39;2.95;;;1.77;;
13807;SDS011;40769;51.512;5.494;2023-07-13T10:34:09;3.22;;;1.77;;
13807;SDS011;40769;51.512;5.494;2023-07-13T10:36:43;3.38;;;2.22;;
13807;SDS011;40769;51.512;5.494;2023-07-13T10:39:30;2.70;;;1.70;;
13807;SDS011;40769;51.512;5.494;2023-07-13T10:41:58;3.08;;;1.70;;
13807;SDS011;40769;51.512;5.494;2023-07-13T10:44:29;2.20;;;1.67;;
13807;SDS011;40769;51.512;5.494;2023-07-13T10:47:04;2.10;;;1.52;;
13807;SDS011;40769;51.512;5.494;2023-07-13T10:49:33;3.08;;;1.85;;
13807;SDS011;40769;51.512;5.494;2023-07-13T10:52:01;2.85;;;1.60;;
13807;SDS011;40769;51.512;5.494;2023-07-13T10:59:43;5.47;;;2.90;;
13807;SDS011;40769;51.512;5.494;2023-07-13T11:02:23;3.75;;;2.72;;
13807;SDS011;40769;51.512;5.494;2023-07-13T11:04:54;4.35;;;3.45;;
13807;SDS011;40769;51.512;5.494;2023-07-13T11:07:30;4.07;;;3.70;;
13807;SDS011;40769;51.512;5.494;2023-07-13T11:10:46;4.85;;;4.32;;
13807;SDS011;40769;51.512;5.494;2023-07-13T11:16:34;5.15;;;4.70;;
13807;SDS011;40769;51.512;5.494;2023-07-13T11:21:32;7.43;;;6.28;;
13807;SDS011;40769;51.512;5.494;2023-07-13T11:26:43;6.22;;;5.70;;
13807;SDS011;40769;51.512;5.494;2023-07-13T11:31:57;7.05;;;6.45;;
13807;SDS011;40769;51.512;5.494;2023-07-13T11:34:36;8.02;;;7.38;;
13807;SDS011;40769;51.512;5.494;2023-07-13T11:37:08;7.70;;;7.10;;
13807;SDS011;40769;51.512;5.494;2023-07-13T11:39:40;6.15;;;5.50;;
13807;SDS011;40769;51.512;5.494;2023-07-13T11:42:10;6.00;;;5.40;;
13807;SDS011;40769;51.512;5.494;2023-07-13T11:44:43;6.43;;;5.93;;
13807;SDS011;40769;51.512;5.494;2023-07-13T11:47:11;8.02;;;7.07;;
13807;SDS011;40769;51.512;5.494;2023-07-13T11:49:54;7.15;;;6.47;;
13807;SDS011;40769;51.512;5.494;2023-07-13T11:52:35;7.00;;;6.50;;
13807;SDS011;40769;51.512;5.494;2023-07-13T11:55:03;7.05;;;6.35;;
13807;SDS011;40769;51.512;5.494;2023-07-13T11:57:45;6.70;;;6.10;;
13807;SDS011;40769;51.512;5.494;2023-07-13T12:00:20;6.45;;;5.68;;
13807;SDS011;40769;51.512;5.494;2023-07-13T12:02:49;6.68;;;5.57;;
13807;SDS011;40769;51.512;5.494;2023-07-13T12:05:18;5.60;;;4.95;;
13807;SDS011;40769;51.512;5.494;2023-07-13T12:07:45;4.70;;;4.30;;
13807;SDS011;40769;51.512;5.494;2023-07-13T12:12:58;4.07;;;3.78;;
13807;SDS011;40769;51.512;5.494;2023-07-13T12:18:31;3.70;;;3.40;;
13807;SDS011;40769;51.512;5.494;2023-07-13T12:20:59;4.40;;;4.00;;
13807;SDS011;40769;51.512;5.494;2023-07-13T12:25:53;5.35;;;3.83;;
13807;SDS011;40769;51.512;5.494;2023-07-13T12:28:33;7.05;;;3.60;;
13807;SDS011;40769;51.512;5.494;2023-07-13T12:31:03;3.22;;;2.92;;
13807;SDS011;40769;51.512;5.494;2023-07-13T12:33:31;3.10;;;2.80;;
13807;SDS011;40769;51.512;5.494;2023-07-13T12:36:05;2.95;;;2.75;;
13807;SDS011;40769;51.512;5.494;2023-07-13T12:38:31;3.25;;;2.85;;
13807;SDS011;40769;51.512;5.494;2023-07-13T12:40:57;3.72;;;3.33;;
13807;SDS011;40769;51.512;5.494;2023-07-13T12:43:24;3.58;;;2.55;;
13807;SDS011;40769;51.512;5.494;2023-07-13T12:45:59;3.47;;;2.75;;
13807;SDS011;40769;51.512;5.494;2023-07-13T12:48:40;5.30;;;3.05;;
13807;SDS011;40769;51.512;5.494;2023-07-13T12:51:09;4.43;;;2.90;;
13807;SDS011;40769;51.512;5.494;2023-07-13T12:53:40;5.65;;;2.80;;
13807;SDS011;40769;51.512;5.494;2023-07-13T12:56:08;3.13;;;2.60;;
13807;SDS011;40769;51.512;5.494;2023-07-13T12:58:56;3.92;;;2.60;;
13807;SDS011;40769;51.512;5.494;2023-07-13T13:01:27;3.60;;;2.60;;
13807;SDS011;40769;51.512;5.494;2023-07-13T13:03:54;3.22;;;2.20;;
13807;SDS011;40769;51.512;5.494;2023-07-13T13:06:23;3.15;;;2.35;;
13807;SDS011;40769;51.512;5.494;2023-07-13T13:08:54;2.72;;;2.20;;
13807;SDS011;40769;51.512;5.494;2023-07-13T13:11:25;2.20;;;1.95;;
13807;SDS011;40769;51.512;5.494;2023-07-13T13:13:52;3.63;;;2.08;;
13807;SDS011;40769;51.512;5.494;2023-07-13T13:19:17;4.00;;;2.13;;
13807;SDS011;40769;51.512;5.494;2023-07-13T13:21:49;4.65;;;1.92;;
13807;SDS011;40769;51.512;5.494;2023-07-13T13:24:18;4.43;;;2.50;;
13807;SDS011;40769;51.512;5.494;2023-07-13T13:26:46;3.58;;;2.50;;
13807;SDS011;40769;51.512;5.494;2023-07-13T13:29:20;3.40;;;2.40;;
13807;SDS011;40769;51.512;5.494;2023-07-13T13:31:49;3.45;;;2.38;;
13807;SDS011;40769;51.512;5.494;2023-07-13T13:34:16;2.80;;;2.10;;
13807;SDS011;40769;51.512;5.494;2023-07-13T13:36:43;3.20;;;2.53;;
13807;SDS011;40769;51.512;5.494;2023-07-13T13:39:18;3.47;;;2.15;;
13807;SDS011;40769;51.512;5.494;2023-07-13T13:41:52;2.38;;;2.08;;
13807;SDS011;40769;51.512;5.494;2023-07-13T13:44:19;3.47;;;2.30;;
13807;SDS011;40769;51.512;5.494;2023-07-13T13:46:47;2.83;;;2.17;;
13807;SDS011;40769;51.512;5.494;2023-07-13T13:49:16;2.75;;;2.45;;
13807;SDS011;40769;51.512;5.494;2023-07-13T13:51:44;3.10;;;2.65;;
13807;SDS011;40769;51.512;5.494;2023-07-13T13:54:14;2.60;;;2.20;;
13807;SDS011;40769;51.512;5.494;2023-07-13T13:56:44;3.08;;;2.42;;
13807;SDS011;40769;51.512;5.494;2023-07-13T13:59:13;2.88;;;2.50;;
13807;SDS011;40769;51.512;5.494;2023-07-13T14:01:40;3.05;;;2.33;;
13807;SDS011;40769;51.512;5.494;2023-07-13T14:04:15;3.03;;;2.33;;
13807;SDS011;40769;51.512;5.494;2023-07-13T14:06:43;1.80;;;1.63;;
13807;SDS011;40769;51.512;5.494;2023-07-13T14:09:10;3.53;;;1.92;;
13807;SDS011;40769;51.512;5.494;2023-07-13T14:11:38;3.03;;;2.30;;
13807;SDS011;40769;51.512;5.494;2023-07-13T14:14:08;2.22;;;1.90;;
13807;SDS011;40769;51.512;5.494;2023-07-13T14:16:46;2.20;;;1.95;;
13807;SDS011;40769;51.512;5.494;2023-07-13T14:19:18;3.58;;;2.03;;
13807;SDS011;40769;51.512;5.494;2023-07-13T14:21:43;2.38;;;2.17;;
13807;SDS011;40769;51.512;5.494;2023-07-13T14:24:09;2.47;;;2.08;;
13807;SDS011;40769;51.512;5.494;2023-07-13T14:26:36;2.03;;;1.80;;
13807;SDS011;40769;51.512;5.494;2023-07-13T14:29:08;2.72;;;2.03;;
13807;SDS011;40769;51.512;5.494;2023-07-13T14:31:38;3.35;;;2.20;;
13807;SDS011;40769;51.512;5.494;2023-07-13T14:34:04;2.17;;;1.98;;
13807;SDS011;40769;51.512;5.494;2023-07-13T14:36:31;3.03;;;2.20;;
13807;SDS011;40769;51.512;5.494;2023-07-13T14:38:59;3.30;;;2.58;;
13807;SDS011;40769;51.512;5.494;2023-07-13T14:41:39;2.50;;;2.20;;
13807;SDS011;40769;51.512;5.494;2023-07-13T14:44:10;2.47;;;2.28;;
13807;SDS011;40769;51.512;5.494;2023-07-13T14:46:37;2.25;;;1.95;;
13807;SDS011;40769;51.512;5.494;2023-07-13T14:49:04;2.22;;;1.70;;
13807;SDS011;40769;51.512;5.494;2023-07-13T14:51:35;1.77;;;1.60;;
13807;SDS011;40769;51.512;5.494;2023-07-13T14:54:02;4.50;;;2.08;;
13807;SDS011;40769;51.512;5.494;2023-07-13T14:56:30;3.15;;;2.28;;
13807;SDS011;40769;51.512;5.494;2023-07-13T14:58:59;2.65;;;2.00;;
13807;SDS011;40769;51.512;5.494;2023-07-13T15:01:25;3.53;;;2.05;;
13807;SDS011;40769;51.512;5.494;2023-07-13T15:03:52;3.53;;;2.13;;
13807;SDS011;40769;51.512;5.494;2023-07-13T15:06:18;4.00;;;1.92;;
13807;SDS011;40769;51.512;5.494;2023-07-13T15:08:45;3.22;;;2.10;;
13807;SDS011;40769;51.512;5.494;2023-07-13T15:11:11;5.85;;;3.08;;
13807;SDS011;40769;51.512;5.494;2023-07-13T15:13:37;3.70;;;2.03;;
13807;SDS011;40769;51.512;5.494;2023-07-13T15:16:05;4.10;;;2.38;;
13807;SDS011;40769;51.512;5.494;2023-07-13T15:18:43;2.92;;;2.03;;
13807;SDS011;40769;51.512;5.494;2023-07-13T15:21:10;3.13;;;2.28;;
13807;SDS011;40769;51.512;5.494;2023-07-13T15:23:39;2.35;;;2.13;;
13807;SDS011;40769;51.512;5.494;2023-07-13T15:26:08;3.00;;;2.03;;
13807;SDS011;40769;51.512;5.494;2023-07-13T15:28:39;2.78;;;2.10;;
13807;SDS011;40769;51.512;5.494;2023-07-13T15:31:11;2.08;;;1.65;;
13807;SDS011;40769;51.512;5.494;2023-07-13T15:33:46;3.78;;;2.83;;
13807;SDS011;40769;51.512;5.494;2023-07-13T15:36:14;3.13;;;2.20;;
13807;SDS011;40769;51.512;5.494;2023-07-13T15:38:42;3.70;;;2.58;;